createdAt,value
2022-09-15T00:00:26.951Z,15.45
2022-09-15T00:03:13.856Z,17.52
2022-09-15T00:06:00.348Z,8.73
2022-09-15T00:08:48.210Z,7.80
2022-09-15T00:11:37.149Z,7.03
2022-09-15T00:14:23.921Z,7.35
2022-09-15T00:17:10.242Z,6.90
2022-09-15T00:19:58.333Z,7.15
2022-09-15T00:22:44.960Z,7.78
2022-09-15T00:25:32.478Z,7.07
2022-09-15T00:28:22.564Z,7.53
2022-09-15T00:31:11.361Z,7.15
2022-09-15T00:34:02.393Z,7.07
2022-09-15T00:36:48.827Z,7.80
2022-09-15T00:39:35.258Z,6.57
2022-09-15T00:42:24.089Z,9.90
2022-09-15T00:45:16.710Z,8.65
2022-09-15T00:48:04.398Z,13.27
2022-09-15T00:50:55.213Z,8.13
2022-09-15T00:53:42.901Z,6.23
2022-09-15T00:56:31.329Z,7.00
2022-09-15T00:59:23.263Z,6.10
2022-09-15T01:02:14.736Z,6.97
2022-09-15T01:05:02.806Z,6.50
2022-09-15T01:07:53.505Z,7.10
2022-09-15T01:10:41.262Z,7.38
2022-09-15T01:13:29.633Z,14.18
2022-09-15T01:16:26.142Z,9.05
2022-09-15T01:19:51.490Z,9.13
2022-09-15T01:22:53.010Z,6.90
2022-09-15T01:26:00.121Z,6.47
2022-09-15T01:29:12.289Z,6.13
2022-09-15T01:32:26.488Z,6.82
2022-09-15T01:35:23.498Z,6.57
2022-09-15T01:38:16.716Z,6.78
2022-09-15T01:41:09.136Z,7.00
2022-09-15T01:44:00.966Z,6.70
2022-09-15T01:46:51.154Z,7.30
2022-09-15T01:49:43.378Z,6.93
2022-09-15T01:52:31.114Z,6.97
2022-09-15T01:55:21.445Z,7.03
2022-09-15T01:58:08.824Z,6.47
2022-09-15T02:01:00.061Z,6.50
2022-09-15T02:03:50.634Z,7.35
2022-09-15T02:06:44.947Z,7.13
2022-09-15T02:09:35.773Z,14.05
2022-09-15T02:12:32.838Z,16.00
2022-09-15T02:15:25.371Z,8.05
2022-09-15T02:18:16.670Z,6.55
2022-09-15T02:21:09.918Z,7.53
2022-09-15T02:24:03.421Z,7.05
2022-09-15T02:26:52.418Z,7.25
2022-09-15T02:29:39.577Z,7.47
2022-09-15T02:32:29.546Z,7.40
2022-09-15T02:35:17.841Z,7.43
2022-09-15T02:38:07.546Z,7.18
2022-09-15T02:40:55.146Z,7.10
2022-09-15T02:43:46.425Z,6.72
2022-09-15T02:46:34.242Z,6.97
2022-09-15T02:49:21.033Z,8.27
2022-09-15T02:52:07.361Z,7.70
2022-09-15T02:54:54.288Z,8.07
2022-09-15T02:57:41.878Z,8.50
2022-09-15T03:00:30.939Z,7.70
2022-09-15T03:03:18.468Z,7.18
2022-09-15T03:06:17.193Z,7.57
2022-09-15T03:09:07.135Z,7.73
2022-09-15T03:11:53.302Z,6.33
2022-09-15T03:14:41.165Z,7.50
2022-09-15T03:17:27.597Z,7.40
2022-09-15T03:20:16.985Z,7.90
2022-09-15T03:23:04.219Z,7.17
2022-09-15T03:25:50.614Z,7.90
2022-09-15T03:28:37.526Z,6.70
2022-09-15T03:31:25.371Z,7.97
2022-09-15T03:34:11.957Z,7.33
2022-09-15T03:36:58.289Z,7.10
2022-09-15T03:39:44.608Z,8.20
2022-09-15T03:42:31.010Z,6.63
2022-09-15T03:45:17.626Z,7.80
2022-09-15T03:48:05.731Z,6.60
2022-09-15T03:50:52.618Z,7.13
2022-09-15T03:53:41.138Z,7.03
2022-09-15T03:56:31.138Z,7.53
2022-09-15T03:59:18.905Z,7.27
2022-09-15T04:02:05.551Z,7.53
2022-09-15T04:04:53.393Z,7.57
2022-09-15T04:07:40.161Z,8.00
2022-09-15T04:10:26.666Z,7.93
2022-09-15T04:13:12.958Z,7.37
2022-09-15T04:16:01.446Z,8.13
2022-09-15T04:18:47.910Z,7.97
2022-09-15T04:21:35.883Z,8.33
2022-09-15T04:24:22.385Z,8.80
2022-09-15T04:27:08.774Z,8.20
2022-09-15T04:29:55.002Z,9.77
2022-09-15T04:32:41.623Z,9.60
2022-09-15T04:35:28.825Z,10.43
2022-09-15T04:38:16.792Z,10.57
2022-09-15T04:41:04.438Z,10.80
2022-09-15T04:43:51.023Z,11.17
2022-09-15T04:46:37.716Z,11.10
2022-09-15T04:49:24.428Z,11.77
2022-09-15T04:52:10.934Z,11.77
2022-09-15T04:54:58.737Z,13.07
2022-09-15T04:57:44.982Z,13.97
2022-09-15T05:00:32.747Z,14.30
2022-09-15T05:03:19.277Z,13.10
2022-09-15T05:06:07.411Z,13.23
2022-09-15T05:08:56.430Z,14.03
2022-09-15T05:11:44.413Z,12.60
2022-09-15T05:14:31.160Z,12.83
2022-09-15T05:17:17.394Z,12.70
2022-09-15T05:20:04.938Z,13.73
2022-09-15T05:22:51.350Z,13.37
2022-09-15T05:25:38.694Z,14.57
2022-09-15T05:28:27.299Z,14.93
2022-09-15T05:31:17.754Z,15.43
2022-09-15T05:34:06.460Z,16.57
2022-09-15T05:36:52.886Z,17.15
2022-09-15T05:39:41.015Z,16.80
2022-09-15T05:42:30.105Z,17.08
2022-09-15T05:45:17.960Z,17.00
2022-09-15T05:48:04.705Z,17.37
2022-09-15T05:50:51.964Z,15.10
2022-09-15T05:53:38.967Z,14.98
2022-09-15T05:56:25.346Z,16.60
2022-09-15T05:59:11.928Z,15.43
2022-09-15T06:01:59.686Z,15.43
2022-09-15T06:04:45.837Z,15.88
2022-09-15T06:07:32.066Z,15.30
2022-09-15T06:10:18.579Z,15.40
2022-09-15T06:13:05.589Z,16.00
2022-09-15T06:15:52.013Z,14.85
2022-09-15T06:18:40.987Z,14.80
2022-09-15T06:21:29.575Z,14.25
2022-09-15T06:24:15.858Z,14.80
2022-09-15T06:27:02.101Z,13.20
2022-09-15T06:29:48.934Z,15.75
2022-09-15T06:32:36.061Z,13.70
2022-09-15T06:35:23.822Z,14.40
2022-09-15T06:38:10.117Z,13.73
2022-09-15T06:40:57.791Z,13.57
2022-09-15T06:43:44.413Z,13.13
2022-09-15T06:46:31.578Z,12.63
2022-09-15T06:49:18.067Z,13.02
2022-09-15T06:52:05.542Z,12.00
2022-09-15T06:54:52.103Z,11.77
2022-09-15T06:57:38.562Z,10.50
2022-09-15T07:00:25.633Z,10.63
2022-09-15T07:03:12.207Z,11.02
2022-09-15T07:05:58.496Z,9.90
2022-09-15T07:08:46.650Z,10.02
2022-09-15T07:11:33.609Z,9.00
2022-09-15T07:14:19.851Z,9.90
2022-09-15T07:17:06.189Z,7.93
2022-09-15T07:19:52.785Z,7.85
2022-09-15T07:22:38.990Z,8.75
2022-09-15T07:25:26.874Z,9.20
2022-09-15T07:28:13.479Z,8.75
2022-09-15T07:31:00.139Z,8.60
2022-09-15T07:33:46.759Z,8.55
2022-09-15T07:36:33.229Z,8.85
2022-09-15T07:39:19.489Z,8.70
2022-09-15T07:42:07.505Z,8.15
2022-09-15T07:44:53.731Z,8.38
2022-09-15T07:47:40.301Z,7.90
2022-09-15T07:50:26.705Z,7.82
2022-09-15T07:53:12.959Z,8.52
2022-09-15T07:55:59.318Z,9.48
2022-09-15T07:58:47.385Z,9.02
2022-09-15T08:01:34.722Z,10.20
2022-09-15T08:04:21.367Z,8.70
2022-09-15T08:07:07.518Z,8.57
2022-09-15T08:09:54.057Z,7.43
2022-09-15T08:12:40.670Z,6.60
2022-09-15T08:15:28.706Z,6.75
2022-09-15T08:18:15.364Z,7.07
2022-09-15T08:21:06.765Z,6.57
2022-09-15T08:23:55.876Z,6.88
2022-09-15T08:26:42.252Z,6.88
2022-09-15T08:29:29.090Z,7.28
2022-09-15T08:32:17.049Z,6.97
2022-09-15T08:35:03.417Z,7.25
2022-09-15T08:37:50.001Z,6.60
2022-09-15T08:40:38.489Z,42.72
2022-09-15T08:43:28.277Z,8.25
2022-09-15T08:46:19.905Z,6.90
2022-09-15T08:49:14.085Z,6.22
2022-09-15T08:52:05.745Z,5.32
2022-09-15T08:54:54.583Z,5.60
2022-09-15T08:57:41.173Z,5.70
2022-09-15T09:00:28.202Z,4.72
2022-09-15T09:03:47.967Z,4.78
2022-09-15T09:06:44.500Z,4.22
2022-09-15T09:09:40.257Z,5.10
2022-09-15T09:12:40.985Z,4.93
2022-09-15T09:15:40.754Z,5.07
2022-09-15T09:18:47.005Z,5.20
2022-09-15T09:21:37.851Z,5.40
2022-09-15T09:24:33.387Z,4.90
2022-09-15T09:27:24.324Z,5.13
2022-09-15T09:30:16.450Z,5.03
2022-09-15T09:33:16.562Z,3.58
2022-09-15T09:36:04.458Z,3.80
2022-09-15T09:38:52.611Z,4.32
2022-09-15T09:41:41.661Z,5.13
2022-09-15T09:44:31.930Z,5.05
2022-09-15T09:47:19.944Z,4.32
2022-09-15T09:50:38.943Z,4.50
2022-09-15T09:53:28.516Z,3.45
2022-09-15T09:56:23.886Z,3.17
2022-09-15T09:59:33.329Z,11.90
2022-09-15T10:02:21.647Z,3.47
2022-09-15T10:05:20.220Z,3.45
2022-09-15T10:08:07.932Z,4.13
2022-09-15T10:10:56.723Z,3.88
2022-09-15T10:13:52.082Z,3.17
2022-09-15T10:16:38.949Z,2.45
2022-09-15T10:19:25.402Z,2.22
2022-09-15T10:22:22.698Z,2.35
2022-09-15T10:25:55.225Z,2.83
2022-09-15T10:28:38.950Z,6.32
2022-09-15T10:31:31.290Z,2.10
2022-09-15T10:34:30.427Z,3.22
2022-09-15T10:37:24.142Z,2.28
2022-09-15T10:40:32.938Z,1.58
2022-09-15T10:43:28.471Z,1.90
2022-09-15T10:46:21.255Z,2.10
2022-09-15T10:49:21.450Z,1.70
2022-09-15T10:52:19.750Z,1.98
2022-09-15T10:55:36.797Z,2.00
2022-09-15T10:58:45.800Z,2.28
2022-09-15T11:01:46.099Z,1.50
2022-09-15T11:04:45.310Z,5.75
2022-09-15T11:07:43.131Z,2.53
2022-09-15T11:10:36.296Z,2.10
2022-09-15T11:13:29.638Z,7.95
2022-09-15T11:16:30.882Z,11.80
2022-09-15T11:19:53.462Z,3.15
2022-09-15T11:22:48.752Z,2.30
2022-09-15T11:25:41.274Z,2.15
2022-09-15T11:28:32.658Z,1.80
2022-09-15T11:31:25.848Z,1.60
2022-09-15T11:34:20.892Z,1.90
2022-09-15T11:37:13.271Z,1.45
2022-09-15T11:40:04.961Z,1.90
2022-09-15T11:42:57.934Z,2.10
2022-09-15T11:45:49.194Z,3.28
2022-09-15T11:48:43.326Z,1.75
2022-09-15T11:51:35.677Z,2.10
2022-09-15T11:54:31.267Z,2.30
2022-09-15T11:57:20.949Z,1.95
2022-09-15T12:00:13.195Z,2.65
2022-09-15T12:03:14.775Z,2.50
2022-09-15T12:06:10.456Z,2.10
2022-09-15T12:09:03.016Z,1.60
2022-09-15T12:11:54.293Z,1.63
2022-09-15T12:14:45.475Z,1.90
2022-09-15T12:17:41.648Z,2.38
2022-09-15T12:20:35.608Z,1.80
2022-09-15T12:23:34.119Z,2.17
2022-09-15T12:26:23.330Z,2.42
2022-09-15T12:29:42.185Z,2.42
2022-09-15T12:32:31.089Z,2.00
2022-09-15T12:35:34.137Z,2.80
2022-09-15T12:38:25.261Z,2.72
2022-09-15T12:41:12.539Z,1.95
2022-09-15T12:44:03.393Z,2.22
2022-09-15T12:46:52.956Z,2.13
2022-09-15T12:49:46.459Z,2.80
2022-09-15T12:52:41.899Z,2.13
2022-09-15T12:55:34.670Z,2.00
2022-09-15T12:58:27.402Z,2.58
2022-09-15T13:01:48.613Z,2.15
2022-09-15T13:04:54.100Z,1.90
2022-09-15T13:07:58.754Z,2.47
2022-09-15T13:11:02.153Z,3.08
2022-09-15T13:13:52.997Z,2.38
2022-09-15T13:16:47.442Z,2.00
2022-09-15T13:19:43.583Z,1.77
2022-09-15T13:22:33.498Z,2.17
2022-09-15T13:25:26.760Z,2.20
2022-09-15T13:31:20.024Z,2.30
2022-09-15T13:38:32.622Z,5.03
2022-09-15T13:41:54.501Z,4.50
2022-09-15T13:45:08.976Z,2.00
2022-09-15T13:48:37.291Z,2.95
2022-09-15T13:51:26.250Z,2.17
2022-09-15T13:54:18.842Z,2.20
2022-09-15T13:57:05.533Z,2.83
2022-09-15T13:59:53.645Z,2.28
2022-09-15T14:02:44.891Z,1.95
2022-09-15T14:05:34.841Z,2.35
2022-09-15T14:08:24.045Z,2.42
2022-09-15T14:11:13.994Z,1.95
2022-09-15T14:22:35.893Z,2.58
2022-09-15T14:25:24.108Z,2.00
2022-09-15T14:28:19.473Z,2.10
2022-09-15T14:31:06.427Z,1.73
2022-09-15T14:33:52.732Z,1.92
2022-09-15T14:36:39.640Z,2.50
2022-09-15T14:39:27.674Z,2.20
2022-09-15T14:42:21.749Z,2.25
2022-09-15T14:48:28.179Z,2.65
2022-09-15T14:51:21.511Z,2.00
2022-09-15T14:54:16.883Z,2.08
2022-09-15T14:57:07.362Z,2.00
2022-09-15T14:59:58.741Z,2.13
2022-09-15T15:03:01.869Z,2.20
2022-09-15T15:06:02.608Z,1.90
2022-09-15T15:08:55.350Z,1.75
2022-09-15T15:11:43.252Z,1.58
2022-09-15T15:14:31.153Z,4.15
2022-09-15T15:17:28.641Z,2.20
2022-09-15T15:20:18.703Z,2.10
2022-09-15T15:23:15.288Z,1.67
2022-09-15T15:26:33.865Z,1.73
2022-09-15T15:29:43.771Z,2.00
2022-09-15T15:32:30.406Z,2.05
2022-09-15T15:35:18.422Z,1.77
2022-09-15T15:38:08.093Z,2.13
2022-09-15T15:41:01.647Z,1.90
2022-09-15T15:44:00.794Z,1.75
2022-09-15T15:46:51.795Z,1.80
2022-09-15T15:49:46.202Z,1.92
2022-09-15T15:52:37.649Z,2.00
2022-09-15T15:55:26.700Z,1.75
2022-09-15T15:58:13.937Z,1.80
2022-09-15T16:01:00.374Z,2.70
2022-09-15T16:03:47.957Z,4.05
2022-09-15T16:06:35.448Z,1.85
2022-09-15T16:09:21.997Z,1.40
2022-09-15T16:12:09.888Z,2.00
2022-09-15T16:14:56.518Z,2.35
2022-09-15T16:17:46.081Z,1.80
2022-09-15T16:20:34.912Z,1.77
2022-09-15T16:23:22.802Z,1.83
2022-09-15T16:26:11.238Z,2.47
2022-09-15T16:28:58.267Z,2.00
2022-09-15T16:31:44.630Z,1.80
2022-09-15T16:34:31.156Z,1.70
2022-09-15T16:37:19.093Z,1.55
2022-09-15T16:40:06.351Z,2.42
2022-09-15T16:42:52.769Z,2.42
2022-09-15T16:45:40.825Z,5.90
2022-09-15T16:48:27.218Z,1.85
2022-09-15T16:51:27.072Z,2.00
2022-09-15T16:54:20.175Z,4.20
2022-09-15T16:57:06.785Z,3.05
2022-09-15T16:59:53.150Z,2.40
2022-09-15T17:02:39.721Z,1.63
2022-09-15T17:05:28.971Z,2.30
2022-09-15T17:08:15.766Z,2.08
2022-09-15T17:11:05.698Z,2.22
2022-09-15T17:13:52.567Z,1.77
2022-09-15T17:16:39.693Z,1.67
2022-09-15T17:19:26.142Z,2.40
2022-09-15T17:22:12.828Z,2.20
2022-09-15T17:24:59.211Z,1.85
2022-09-15T17:27:47.246Z,1.98
2022-09-15T17:30:35.734Z,2.25
2022-09-15T17:33:22.425Z,1.60
2022-09-15T17:36:08.773Z,2.10
2022-09-15T17:38:55.632Z,2.15
2022-09-15T17:41:41.888Z,1.90
2022-09-15T17:44:32.157Z,2.10
2022-09-15T17:47:20.467Z,5.07
2022-09-15T17:50:07.530Z,6.63
2022-09-15T17:52:53.766Z,1.75
2022-09-15T17:55:40.833Z,2.08
2022-09-15T17:58:29.813Z,2.28
2022-09-15T18:01:17.729Z,2.03
2022-09-15T18:04:04.468Z,2.28
2022-09-15T18:06:50.929Z,1.95
2022-09-15T18:09:37.513Z,2.30
2022-09-15T18:12:23.982Z,2.05
2022-09-15T18:15:14.940Z,2.20
2022-09-15T18:18:08.448Z,2.15
2022-09-15T18:20:57.700Z,1.50
2022-09-15T18:23:45.011Z,1.75
2022-09-15T18:26:31.617Z,2.30
2022-09-15T18:29:18.101Z,1.90
2022-09-15T18:32:04.755Z,1.92
2022-09-15T18:34:52.383Z,2.22
2022-09-15T18:37:39.434Z,2.08
2022-09-15T18:40:27.253Z,1.95
2022-09-15T18:43:14.024Z,2.25
2022-09-15T18:46:01.416Z,2.47
2022-09-15T18:48:48.122Z,1.98
2022-09-15T18:51:51.194Z,2.00
2022-09-15T18:54:38.507Z,1.88
2022-09-15T18:57:24.914Z,2.13
2022-09-15T19:00:14.073Z,1.98
2022-09-15T19:03:02.537Z,1.83
2022-09-15T19:05:49.801Z,1.95
2022-09-15T19:08:37.545Z,2.10
2022-09-15T19:11:24.048Z,2.10
2022-09-15T19:14:10.411Z,2.15
2022-09-15T19:16:58.340Z,1.92
2022-09-15T19:19:46.293Z,1.60
2022-09-15T19:22:32.531Z,2.00
2022-09-15T19:25:20.649Z,1.67
2022-09-15T19:28:07.001Z,2.05
2022-09-15T19:30:53.397Z,1.90
2022-09-15T19:33:40.118Z,1.85
2022-09-15T19:36:28.939Z,3.45
2022-09-15T19:39:15.967Z,3.35
2022-09-15T19:42:03.620Z,1.63
2022-09-15T19:44:50.322Z,1.40
2022-09-15T19:47:36.792Z,1.40
2022-09-15T19:50:23.486Z,1.98
2022-09-15T19:53:09.653Z,1.50
2022-09-15T19:55:56.278Z,1.60
2022-09-15T19:58:44.581Z,1.10
2022-09-15T20:01:32.520Z,1.40
2022-09-15T20:04:19.127Z,1.55
2022-09-15T20:07:05.560Z,1.70
2022-09-15T20:09:53.418Z,1.30
2022-09-15T20:12:40.017Z,1.85
2022-09-15T20:15:27.735Z,1.23
2022-09-15T20:18:14.595Z,1.55
2022-09-15T20:21:01.342Z,1.48
2022-09-15T20:23:48.075Z,1.77
2022-09-15T20:26:34.592Z,1.58
2022-09-15T20:29:21.441Z,1.77
2022-09-15T20:32:09.252Z,1.50
2022-09-15T20:34:56.017Z,1.30
2022-09-15T20:37:42.629Z,1.38
2022-09-15T20:40:29.070Z,1.80
2022-09-15T20:43:15.614Z,2.05
2022-09-15T20:46:04.195Z,1.40
2022-09-15T20:48:52.374Z,1.70
2022-09-15T20:51:38.638Z,1.92
2022-09-15T20:54:25.082Z,2.80
2022-09-15T20:57:11.614Z,1.90
2022-09-15T20:59:57.863Z,1.73
2022-09-15T21:02:44.591Z,2.13
2022-09-15T21:05:32.163Z,2.20
2022-09-15T21:08:18.785Z,1.80
2022-09-15T21:11:08.868Z,2.03
2022-09-15T21:13:56.270Z,1.92
2022-09-15T21:16:43.028Z,1.90
2022-09-15T21:19:29.234Z,2.20
2022-09-15T21:22:17.109Z,2.67
2022-09-15T21:25:03.451Z,1.67
2022-09-15T21:27:50.549Z,2.65
2022-09-15T21:30:38.087Z,2.72
2022-09-15T21:33:25.050Z,6.93
2022-09-15T21:36:13.742Z,2.15
2022-09-15T21:39:02.677Z,2.00
2022-09-15T21:41:48.929Z,2.00
2022-09-15T21:44:35.104Z,2.13
2022-09-15T21:47:22.074Z,2.20
2022-09-15T21:50:09.363Z,2.17
2022-09-15T21:52:55.800Z,2.10
2022-09-15T21:55:43.726Z,2.17
2022-09-15T21:58:38.947Z,1.88
2022-09-15T22:01:29.997Z,2.28
2022-09-15T22:04:16.225Z,11.52
2022-09-15T22:07:04.373Z,2.05
2022-09-15T22:09:50.995Z,1.98
2022-09-15T22:12:38.627Z,2.13
2022-09-15T22:15:25.155Z,1.60
2022-09-15T22:18:11.495Z,1.73
2022-09-15T22:21:06.018Z,1.73
2022-09-15T22:23:54.524Z,1.67
2022-09-15T22:26:42.461Z,1.98
2022-09-15T22:29:30.413Z,1.83
2022-09-15T22:32:16.998Z,1.90
2022-09-15T22:35:03.272Z,2.00
2022-09-15T22:37:49.542Z,1.93
2022-09-15T22:40:35.786Z,1.75
2022-09-15T22:43:22.258Z,1.73
2022-09-15T22:46:10.992Z,1.80
2022-09-15T22:48:57.951Z,1.85
2022-09-15T22:51:44.254Z,2.53
2022-09-15T22:54:30.599Z,1.52
2022-09-15T22:57:16.914Z,1.40
2022-09-15T23:00:04.110Z,1.70
2022-09-15T23:02:51.979Z,1.37
2022-09-15T23:05:38.645Z,1.80
2022-09-15T23:08:24.944Z,1.83
2022-09-15T23:11:14.071Z,1.77
2022-09-15T23:14:01.041Z,1.90
2022-09-15T23:16:47.487Z,2.00
2022-09-15T23:19:35.211Z,10.03
2022-09-15T23:22:22.419Z,3.97
2022-09-15T23:25:09.423Z,2.03
2022-09-15T23:27:55.934Z,1.93
2022-09-15T23:30:42.212Z,1.95
2022-09-15T23:33:31.390Z,1.77
2022-09-15T23:36:20.346Z,1.60
2022-09-15T23:39:06.717Z,2.03
2022-09-15T23:41:52.982Z,1.40
2022-09-15T23:44:39.435Z,1.80
2022-09-15T23:47:25.918Z,1.90
2022-09-15T23:50:12.371Z,1.93
2022-09-15T23:53:00.064Z,1.90
2022-09-15T23:55:46.680Z,1.60
2022-09-15T23:58:32.911Z,1.83
